createdAt,value
2022-11-10T00:00:48.226Z,12.60
2022-11-10T00:03:35.174Z,17.15
2022-11-10T00:06:21.526Z,12.25
2022-11-10T00:09:07.500Z,14.57
2022-11-10T00:11:53.640Z,14.75
2022-11-10T00:14:58.285Z,10.38
2022-11-10T00:17:44.500Z,15.48
2022-11-10T00:20:30.339Z,12.50
2022-11-10T00:23:15.959Z,15.43
2022-11-10T00:26:02.377Z,10.95
2022-11-10T00:28:50.497Z,11.70
2022-11-10T00:31:40.313Z,12.30
2022-11-10T00:34:26.296Z,15.90
2022-11-10T00:37:12.349Z,12.88
2022-11-10T00:39:57.912Z,13.07
2022-11-10T00:42:43.763Z,17.40
2022-11-10T00:45:29.747Z,13.05
2022-11-10T00:48:15.386Z,13.32
2022-11-10T00:51:01.367Z,16.83
2022-11-10T00:53:47.192Z,12.93
2022-11-10T00:56:33.139Z,18.00
2022-11-10T00:59:19.279Z,15.50
2022-11-10T01:02:05.306Z,11.07
2022-11-10T01:04:50.899Z,13.77
2022-11-10T01:07:36.518Z,11.13
2022-11-10T01:10:22.385Z,15.15
2022-11-10T01:13:08.089Z,14.27
2022-11-10T01:15:54.053Z,10.35
2022-11-10T01:18:40.103Z,14.60
2022-11-10T01:21:26.950Z,10.43
2022-11-10T01:24:12.714Z,16.17
2022-11-10T01:26:58.639Z,13.40
2022-11-10T01:29:44.472Z,18.33
2022-11-10T01:32:30.619Z,15.27
2022-11-10T01:35:16.173Z,18.40
2022-11-10T01:38:01.994Z,13.00
2022-11-10T01:40:47.848Z,9.02
2022-11-10T01:43:33.867Z,11.75
2022-11-10T01:46:19.807Z,14.50
2022-11-10T01:49:05.865Z,19.25
2022-11-10T01:51:58.795Z,17.60
2022-11-10T01:54:47.277Z,11.85
2022-11-10T01:57:33.818Z,13.40
2022-11-10T02:00:20.130Z,14.32
2022-11-10T02:03:11.276Z,15.75
2022-11-10T02:05:57.028Z,13.70
2022-11-10T02:08:43.528Z,19.05
2022-11-10T02:11:30.400Z,12.63
2022-11-10T02:14:16.749Z,14.93
2022-11-10T02:17:02.776Z,15.45
2022-11-10T02:19:48.581Z,11.98
2022-11-10T02:22:34.545Z,13.15
2022-11-10T02:25:22.227Z,13.23
2022-11-10T02:28:08.069Z,12.65
2022-11-10T02:30:54.467Z,13.82
2022-11-10T02:33:40.327Z,13.15
2022-11-10T02:36:26.099Z,12.90
2022-11-10T02:39:11.721Z,13.48
2022-11-10T02:41:57.315Z,14.50
2022-11-10T02:44:43.083Z,15.68
2022-11-10T02:47:29.065Z,20.30
2022-11-10T02:50:15.346Z,14.63
2022-11-10T02:53:01.398Z,17.33
2022-11-10T02:55:47.275Z,14.05
2022-11-10T02:58:33.465Z,19.65
2022-11-10T03:01:19.422Z,13.68
2022-11-10T03:04:05.901Z,13.57
2022-11-10T03:06:51.820Z,13.32
2022-11-10T03:09:37.827Z,15.50
2022-11-10T03:12:23.511Z,11.73
2022-11-10T03:15:09.683Z,13.05
2022-11-10T03:17:56.049Z,14.02
2022-11-10T03:20:42.072Z,14.63
2022-11-10T03:23:27.891Z,15.55
2022-11-10T03:26:14.382Z,13.55
2022-11-10T03:29:00.627Z,18.83
2022-11-10T03:31:46.630Z,11.98
2022-11-10T03:34:32.666Z,15.23
2022-11-10T03:37:18.480Z,16.52
2022-11-10T03:40:04.243Z,14.23
2022-11-10T03:42:49.931Z,18.25
2022-11-10T03:45:36.050Z,16.23
2022-11-10T03:48:21.624Z,19.35
2022-11-10T03:51:07.793Z,17.73
2022-11-10T03:53:53.572Z,15.48
2022-11-10T03:56:39.683Z,16.25
2022-11-10T03:59:25.443Z,12.68
2022-11-10T04:02:12.232Z,14.18
2022-11-10T04:05:16.593Z,13.63
2022-11-10T04:08:20.866Z,15.73
2022-11-10T04:11:06.870Z,14.70
2022-11-10T04:14:10.966Z,16.92
2022-11-10T04:16:57.254Z,15.77
2022-11-10T04:19:42.915Z,15.20
2022-11-10T04:22:47.413Z,13.98
2022-11-10T04:25:53.115Z,15.75
2022-11-10T04:28:39.655Z,14.57
2022-11-10T04:31:28.105Z,14.70
2022-11-10T04:34:15.415Z,17.10
2022-11-10T04:37:01.400Z,19.90
2022-11-10T04:39:47.595Z,14.75
2022-11-10T04:42:33.222Z,14.57
2022-11-10T04:45:19.052Z,12.98
2022-11-10T04:48:05.136Z,14.27
2022-11-10T04:50:51.415Z,16.23
2022-11-10T04:53:37.651Z,13.80
2022-11-10T04:56:24.952Z,12.60
2022-11-10T04:59:10.742Z,15.50
2022-11-10T05:01:56.428Z,15.82
2022-11-10T05:04:42.138Z,18.25
2022-11-10T05:07:27.770Z,14.40
2022-11-10T05:10:14.990Z,15.48
2022-11-10T05:13:01.234Z,16.25
2022-11-10T05:15:46.963Z,18.70
2022-11-10T05:18:32.706Z,15.68
2022-11-10T05:21:18.244Z,15.20
2022-11-10T05:24:04.467Z,16.35
2022-11-10T05:26:50.112Z,15.05
2022-11-10T05:29:35.759Z,15.82
2022-11-10T05:32:21.433Z,15.82
2022-11-10T05:35:07.419Z,15.95
2022-11-10T05:37:53.244Z,16.77
2022-11-10T05:40:38.812Z,14.25
2022-11-10T05:43:25.111Z,15.23
2022-11-10T05:46:11.437Z,12.10
2022-11-10T05:48:57.173Z,13.70
2022-11-10T05:51:42.932Z,11.38
2022-11-10T05:54:29.317Z,14.13
2022-11-10T05:57:14.894Z,19.80
2022-11-10T06:00:00.932Z,15.65
2022-11-10T06:02:46.733Z,20.48
2022-11-10T06:05:34.979Z,12.98
2022-11-10T06:08:21.018Z,15.05
2022-11-10T06:11:06.622Z,14.07
2022-11-10T06:13:52.459Z,17.00
2022-11-10T06:16:38.239Z,14.93
2022-11-10T06:19:24.076Z,18.80
2022-11-10T06:22:10.078Z,20.40
2022-11-10T06:24:56.029Z,19.45
2022-11-10T06:27:44.971Z,17.48
2022-11-10T06:30:32.304Z,17.15
2022-11-10T06:33:18.052Z,16.05
2022-11-10T06:36:03.987Z,12.65
2022-11-10T06:38:49.917Z,16.17
2022-11-10T06:41:35.838Z,14.60
2022-11-10T06:44:21.469Z,17.33
2022-11-10T06:47:07.557Z,15.02
2022-11-10T06:49:53.454Z,17.27
2022-11-10T06:52:39.186Z,18.42
2022-11-10T06:55:25.727Z,21.02
2022-11-10T06:58:12.474Z,15.30
2022-11-10T07:01:01.809Z,15.90
2022-11-10T07:04:13.128Z,17.42
2022-11-10T07:06:54.248Z,17.45
2022-11-10T07:09:39.969Z,11.73
2022-11-10T07:12:25.989Z,19.73
2022-11-10T07:15:11.971Z,35.25
2022-11-10T07:17:57.985Z,20.73
2022-11-10T07:20:43.975Z,13.25
2022-11-10T07:23:29.701Z,15.82
2022-11-10T07:26:15.572Z,16.17
2022-11-10T07:29:01.394Z,15.88
2022-11-10T07:31:47.452Z,18.70
2022-11-10T07:34:33.002Z,20.38
2022-11-10T07:37:18.926Z,20.38
2022-11-10T07:40:04.937Z,26.88
2022-11-10T07:42:50.892Z,17.30
2022-11-10T07:45:36.734Z,18.65
2022-11-10T07:48:22.667Z,20.20
2022-11-10T07:51:08.714Z,15.45
2022-11-10T07:53:54.415Z,23.90
2022-11-10T07:56:42.339Z,15.43
2022-11-10T07:59:27.986Z,16.48
2022-11-10T08:02:13.788Z,15.70
2022-11-10T08:04:59.583Z,27.83
2022-11-10T08:07:45.775Z,15.93
2022-11-10T08:10:32.503Z,19.05
2022-11-10T08:13:18.418Z,21.55
2022-11-10T08:16:04.472Z,21.98
2022-11-10T08:18:50.256Z,18.20
2022-11-10T08:21:36.086Z,17.58
2022-11-10T08:24:22.346Z,20.35
2022-11-10T08:27:08.248Z,20.65
2022-11-10T08:29:54.384Z,23.23
2022-11-10T08:32:40.463Z,21.33
2022-11-10T08:35:28.451Z,18.85
2022-11-10T08:38:24.576Z,21.38
2022-11-10T08:41:10.571Z,15.88
2022-11-10T08:43:56.514Z,23.73
2022-11-10T08:46:44.383Z,28.63
2022-11-10T08:49:30.384Z,20.88
2022-11-10T08:52:16.024Z,17.67
2022-11-10T08:55:02.376Z,23.10
2022-11-10T08:57:48.604Z,25.58
2022-11-10T09:00:35.587Z,19.38
2022-11-10T09:03:24.600Z,30.35
2022-11-10T09:06:10.916Z,19.13
2022-11-10T09:08:57.507Z,28.38
2022-11-10T09:11:43.261Z,22.80
2022-11-10T09:14:29.276Z,19.67
2022-11-10T09:17:14.922Z,18.60
2022-11-10T09:20:00.720Z,23.08
2022-11-10T09:22:46.849Z,23.58
2022-11-10T09:25:32.460Z,31.08
2022-11-10T09:28:19.385Z,25.58
2022-11-10T09:31:04.827Z,28.30
2022-11-10T09:33:50.691Z,30.23
2022-11-10T09:36:37.407Z,25.95
2022-11-10T09:39:23.501Z,23.70
2022-11-10T09:42:36.937Z,25.77
2022-11-10T09:45:29.154Z,25.63
2022-11-10T09:48:25.597Z,28.73
2022-11-10T09:51:32.011Z,26.60
2022-11-10T09:54:46.312Z,27.80
2022-11-10T09:57:32.693Z,25.27
2022-11-10T10:00:19.246Z,24.92
2022-11-10T10:03:06.267Z,25.10
2022-11-10T10:06:11.187Z,26.27
2022-11-10T10:09:09.397Z,23.27
2022-11-10T10:12:04.505Z,21.42
2022-11-10T10:14:59.156Z,25.75
2022-11-10T10:18:00.169Z,23.20
2022-11-10T10:20:48.782Z,21.58
2022-11-10T10:26:52.770Z,22.83
2022-11-10T10:29:46.892Z,25.80
2022-11-10T10:32:32.833Z,31.15
2022-11-10T10:35:18.960Z,34.83
2022-11-10T10:38:05.810Z,27.15
2022-11-10T10:40:52.281Z,27.85
2022-11-10T10:43:40.769Z,28.48
2022-11-10T10:46:32.822Z,21.17
2022-11-10T10:49:30.106Z,24.10
2022-11-10T10:52:17.820Z,22.90
2022-11-10T10:55:07.799Z,23.42
2022-11-10T11:00:47.554Z,29.15
2022-11-10T11:06:33.665Z,31.80
2022-11-10T11:09:27.370Z,26.65
2022-11-10T11:12:28.486Z,27.52
2022-11-10T11:15:29.246Z,28.08
2022-11-10T11:18:17.656Z,23.98
2022-11-10T11:21:22.553Z,24.10
2022-11-10T11:24:23.864Z,25.60
2022-11-10T11:27:28.091Z,24.38
2022-11-10T11:30:19.333Z,25.08
2022-11-10T11:33:22.242Z,27.27
2022-11-10T11:36:30.602Z,23.83
2022-11-10T11:39:41.236Z,58.08
2022-11-10T11:42:37.962Z,22.35
2022-11-10T11:45:34.657Z,25.17
2022-11-10T11:48:39.090Z,25.42
2022-11-10T11:51:45.934Z,52.08
2022-11-10T11:54:56.779Z,34.25
2022-11-10T11:58:17.091Z,18.90
2022-11-10T12:01:06.206Z,22.15
2022-11-10T12:04:18.190Z,22.65
2022-11-10T12:07:24.065Z,20.55
2022-11-10T12:10:23.979Z,23.33
2022-11-10T12:16:12.102Z,22.95
2022-11-10T12:19:06.720Z,24.75
2022-11-10T12:21:57.946Z,22.70
2022-11-10T12:24:46.755Z,24.55
2022-11-10T12:27:40.809Z,27.48
2022-11-10T12:30:26.951Z,29.25
2022-11-10T12:33:35.402Z,26.05
2022-11-10T12:36:22.527Z,34.17
2022-11-10T12:39:18.066Z,21.58
2022-11-10T12:42:05.381Z,25.95
2022-11-10T12:45:19.215Z,18.35
2022-11-10T12:48:05.355Z,19.17
2022-11-10T12:50:58.301Z,21.50
2022-11-10T12:53:45.810Z,26.30
2022-11-10T12:56:39.826Z,25.13
2022-11-10T12:59:31.405Z,20.33
2022-11-10T13:02:24.932Z,23.02
2022-11-10T13:05:13.997Z,18.38
2022-11-10T13:08:16.719Z,15.43
2022-11-10T13:11:11.628Z,22.23
2022-11-10T13:14:00.880Z,24.38
2022-11-10T13:16:54.333Z,17.63
2022-11-10T13:19:40.248Z,16.27
2022-11-10T13:22:40.910Z,16.42
2022-11-10T13:25:36.459Z,23.40
2022-11-10T13:28:47.432Z,17.52
2022-11-10T13:31:33.495Z,17.88
2022-11-10T13:34:19.978Z,16.30
2022-11-10T13:37:33.878Z,20.33
2022-11-10T13:40:25.395Z,18.52
2022-11-10T13:43:19.913Z,20.30
2022-11-10T13:46:05.685Z,18.23
2022-11-10T13:49:15.699Z,19.40
2022-11-10T13:52:11.511Z,16.30
2022-11-10T13:55:03.177Z,18.27
2022-11-10T13:58:02.136Z,18.30
2022-11-10T14:01:16.339Z,29.60
2022-11-10T14:04:03.116Z,19.02
2022-11-10T14:06:51.326Z,16.02
2022-11-10T14:09:39.896Z,20.95
2022-11-10T14:12:33.348Z,19.88
2022-11-10T14:15:34.862Z,15.77
2022-11-10T14:18:23.769Z,18.10
2022-11-10T14:21:12.540Z,16.63
2022-11-10T14:24:12.484Z,16.30
2022-11-10T14:26:59.319Z,14.77
2022-11-10T14:29:45.077Z,15.57
2022-11-10T14:32:31.376Z,15.88
2022-11-10T14:35:21.263Z,16.38
2022-11-10T14:38:35.788Z,13.05
2022-11-10T14:41:22.590Z,16.17
2022-11-10T14:44:15.392Z,16.92
2022-11-10T14:47:27.468Z,10.13
2022-11-10T14:50:21.969Z,24.08
2022-11-10T14:53:15.066Z,28.05
2022-11-10T14:56:02.948Z,16.42
2022-11-10T14:58:49.898Z,13.93
2022-11-10T15:01:38.844Z,19.38
2022-11-10T15:04:31.857Z,10.82
2022-11-10T15:07:21.223Z,13.70
2022-11-10T15:10:15.050Z,14.90
2022-11-10T15:13:13.169Z,14.45
2022-11-10T15:16:25.580Z,16.40
2022-11-10T15:19:23.444Z,20.58
2022-11-10T15:22:22.415Z,29.35
2022-11-10T15:25:20.045Z,25.58
2022-11-10T15:28:27.039Z,19.33
2022-11-10T15:31:31.118Z,21.65
2022-11-10T15:34:43.687Z,20.08
2022-11-10T15:37:31.508Z,25.33
2022-11-10T15:40:48.948Z,20.33
2022-11-10T15:43:34.776Z,27.63
2022-11-10T15:46:22.943Z,20.73
2022-11-10T15:49:31.599Z,23.40
2022-11-10T15:52:20.218Z,23.65
2022-11-10T15:55:06.444Z,21.60
2022-11-10T15:57:52.560Z,27.38
2022-11-10T16:00:38.907Z,23.40
2022-11-10T16:03:25.581Z,28.58
2022-11-10T16:06:15.614Z,21.85
2022-11-10T16:09:01.751Z,20.40
2022-11-10T16:11:47.620Z,22.27
2022-11-10T16:14:33.652Z,23.27
2022-11-10T16:17:19.467Z,20.95
2022-11-10T16:20:13.822Z,18.70
2022-11-10T16:22:59.728Z,22.73
2022-11-10T16:25:46.908Z,25.05
2022-11-10T16:28:32.956Z,19.08
2022-11-10T16:31:20.216Z,23.95
2022-11-10T16:34:06.098Z,23.30
2022-11-10T16:36:52.052Z,19.33
2022-11-10T16:39:38.094Z,18.65
2022-11-10T16:42:24.138Z,19.77
2022-11-10T16:45:23.693Z,19.90
2022-11-10T16:48:09.663Z,26.52
2022-11-10T16:50:57.806Z,17.15
2022-11-10T16:53:44.536Z,15.07
2022-11-10T16:56:30.624Z,16.33
2022-11-10T16:59:17.159Z,17.55
2022-11-10T17:02:03.338Z,13.90
2022-11-10T17:04:49.247Z,12.02
2022-11-10T17:07:35.958Z,15.52
2022-11-10T17:10:21.860Z,15.15
2022-11-10T17:13:10.975Z,14.60
2022-11-10T17:16:08.058Z,12.57
2022-11-10T17:18:54.525Z,11.07
2022-11-10T17:21:40.454Z,14.77
2022-11-10T17:24:26.805Z,17.73
2022-11-10T17:27:12.548Z,17.73
2022-11-10T17:29:58.554Z,14.00
2022-11-10T17:33:04.066Z,23.08
2022-11-10T17:35:52.236Z,19.67
2022-11-10T17:38:38.621Z,10.23
2022-11-10T17:41:24.604Z,11.50
2022-11-10T17:44:14.432Z,14.40
2022-11-10T17:47:00.306Z,13.93
2022-11-10T17:49:46.127Z,13.82
2022-11-10T17:52:31.980Z,11.88
2022-11-10T17:55:19.238Z,15.35
2022-11-10T17:58:05.458Z,15.80
2022-11-10T18:00:51.335Z,12.32
2022-11-10T18:03:37.385Z,13.45
2022-11-10T18:06:23.277Z,12.70
2022-11-10T18:09:09.218Z,16.45
2022-11-10T18:11:54.938Z,33.83
2022-11-10T18:14:40.678Z,17.42
2022-11-10T18:17:26.448Z,11.88
2022-11-10T18:20:14.213Z,16.30
2022-11-10T18:23:00.256Z,15.32
2022-11-10T18:25:45.936Z,14.60
2022-11-10T18:28:31.627Z,19.55
2022-11-10T18:31:18.910Z,26.77
2022-11-10T18:34:04.719Z,26.25
2022-11-10T18:36:52.284Z,21.75
2022-11-10T18:39:38.325Z,20.00
2022-11-10T18:42:24.695Z,13.73
2022-11-10T18:45:11.160Z,16.67
2022-11-10T18:48:02.202Z,16.48
2022-11-10T18:50:48.834Z,14.73
2022-11-10T18:53:38.282Z,13.40
2022-11-10T18:56:25.830Z,11.95
2022-11-10T18:59:11.898Z,18.08
2022-11-10T19:01:57.953Z,15.70
2022-11-10T19:04:43.846Z,18.92
2022-11-10T19:07:30.322Z,20.52
2022-11-10T19:10:16.406Z,16.25
2022-11-10T19:13:02.269Z,18.73
2022-11-10T19:15:48.011Z,16.17
2022-11-10T19:18:40.862Z,18.85
2022-11-10T19:21:27.674Z,15.00
2022-11-10T19:24:25.834Z,15.63
2022-11-10T19:27:14.178Z,10.95
2022-11-10T19:29:59.683Z,10.68
2022-11-10T19:32:45.489Z,17.63
2022-11-10T19:35:32.987Z,11.57
2022-11-10T19:38:18.819Z,16.70
2022-11-10T19:41:10.207Z,10.52
2022-11-10T19:43:55.985Z,14.65
2022-11-10T19:46:41.808Z,15.30
2022-11-10T19:49:27.576Z,13.82
2022-11-10T19:52:13.621Z,16.42
2022-11-10T19:54:59.297Z,16.63
2022-11-10T19:57:45.128Z,14.13
2022-11-10T20:00:31.197Z,17.88
2022-11-10T20:03:16.713Z,14.10
2022-11-10T20:06:08.172Z,12.25
2022-11-10T20:08:55.051Z,15.50
2022-11-10T20:11:40.660Z,10.73
2022-11-10T20:14:27.226Z,12.32
2022-11-10T20:17:12.870Z,13.57
2022-11-10T20:19:58.442Z,15.38
2022-11-10T20:22:44.444Z,13.55
2022-11-10T20:25:30.773Z,18.27
2022-11-10T20:28:16.703Z,10.82
2022-11-10T20:31:04.018Z,15.68
2022-11-10T20:33:51.363Z,11.25
2022-11-10T20:36:37.402Z,14.18
2022-11-10T20:39:23.135Z,15.73
2022-11-10T20:42:10.445Z,15.48
2022-11-10T20:44:56.255Z,13.25
2022-11-10T20:47:42.293Z,13.57
2022-11-10T20:50:28.040Z,14.65
2022-11-10T20:53:14.252Z,13.20
2022-11-10T20:56:01.909Z,13.93
2022-11-10T20:58:48.991Z,16.98
2022-11-10T21:01:34.880Z,15.98
2022-11-10T21:04:20.934Z,23.08
2022-11-10T21:07:06.954Z,41.72
2022-11-10T21:09:52.783Z,16.92
2022-11-10T21:12:50.516Z,13.48
2022-11-10T21:15:38.427Z,20.48
2022-11-10T21:18:30.235Z,15.35
2022-11-10T21:21:21.801Z,12.07
2022-11-10T21:24:08.586Z,14.35
2022-11-10T21:26:55.234Z,15.40
2022-11-10T21:29:42.491Z,15.45
2022-11-10T21:32:28.658Z,10.07
2022-11-10T21:35:14.375Z,12.48
2022-11-10T21:38:00.413Z,14.18
2022-11-10T21:40:46.372Z,12.30
2022-11-10T21:43:32.159Z,14.05
2022-11-10T21:46:18.353Z,13.75
2022-11-10T21:49:07.699Z,14.98
2022-11-10T21:51:54.084Z,11.77
2022-11-10T21:54:39.818Z,18.38
2022-11-10T21:57:26.090Z,13.93
2022-11-10T22:00:13.159Z,15.27
2022-11-10T22:02:59.930Z,16.92
2022-11-10T22:05:45.553Z,13.55
2022-11-10T22:08:31.642Z,13.45
2022-11-10T22:11:38.575Z,13.10
2022-11-10T22:14:43.101Z,13.70
2022-11-10T22:17:47.305Z,13.15
2022-11-10T22:20:33.313Z,13.70
2022-11-10T22:23:18.941Z,14.05
2022-11-10T22:26:04.881Z,11.45
2022-11-10T22:28:50.635Z,14.73
2022-11-10T22:31:36.663Z,12.80
2022-11-10T22:34:22.669Z,17.48
2022-11-10T22:37:08.521Z,10.77
2022-11-10T22:40:12.665Z,11.00
2022-11-10T22:43:17.088Z,11.75
2022-11-10T22:46:02.938Z,13.90
2022-11-10T22:48:48.668Z,12.50
2022-11-10T22:51:35.092Z,12.02
2022-11-10T22:54:23.118Z,12.38
2022-11-10T22:57:09.215Z,14.45
2022-11-10T22:59:55.109Z,12.77
2022-11-10T23:02:40.759Z,14.98
2022-11-10T23:05:26.809Z,15.18
2022-11-10T23:08:12.412Z,11.77
2022-11-10T23:11:12.465Z,12.23
2022-11-10T23:13:58.552Z,14.15
2022-11-10T23:16:44.290Z,12.95
2022-11-10T23:19:30.265Z,11.52
2022-11-10T23:22:15.998Z,10.48
2022-11-10T23:25:01.582Z,14.80
2022-11-10T23:27:47.645Z,12.15
2022-11-10T23:30:33.286Z,11.90
2022-11-10T23:33:18.904Z,14.27
2022-11-10T23:36:06.023Z,12.68
2022-11-10T23:38:52.172Z,11.07
2022-11-10T23:41:38.377Z,14.68
2022-11-10T23:44:24.091Z,12.60
2022-11-10T23:47:10.007Z,12.70
2022-11-10T23:49:56.060Z,12.45
2022-11-10T23:52:42.067Z,13.65
2022-11-10T23:55:27.809Z,19.70
2022-11-10T23:58:13.610Z,12.57
